sensor_id;sensor_type;location;lat;lon;timestamp;temperature;humidity
67502;SHT30;54349;52.528;19.760;2022-12-29T00:01:06;23.16;46.04
67502;SHT30;54349;52.528;19.760;2022-12-29T00:03:36;23.16;46.04
67502;SHT30;54349;52.528;19.760;2022-12-29T00:06:05;23.17;46.04
67502;SHT30;54349;52.528;19.760;2022-12-29T00:08:34;23.17;45.99
67502;SHT30;54349;52.528;19.760;2022-12-29T00:11:15;23.17;45.95
67502;SHT30;54349;52.528;19.760;2022-12-29T00:13:47;23.17;45.93
67502;SHT30;54349;52.528;19.760;2022-12-29T00:16:36;23.18;46.05
67502;SHT30;54349;52.528;19.760;2022-12-29T00:19:11;23.18;46.01
67502;SHT30;54349;52.528;19.760;2022-12-29T00:22:00;23.18;45.95
67502;SHT30;54349;52.528;19.760;2022-12-29T00:24:48;23.17;45.92
67502;SHT30;54349;52.528;19.760;2022-12-29T00:27:35;23.16;46.07
67502;SHT30;54349;52.528;19.760;2022-12-29T00:30:26;23.17;46.01
67502;SHT30;54349;52.528;19.760;2022-12-29T00:33:16;23.16;46.03
67502;SHT30;54349;52.528;19.760;2022-12-29T00:36:11;23.15;46.00
67502;SHT30;54349;52.528;19.760;2022-12-29T00:38:48;23.16;45.98
67502;SHT30;54349;52.528;19.760;2022-12-29T00:41:41;23.15;45.79
67502;SHT30;54349;52.528;19.760;2022-12-29T00:44:30;23.17;45.86
67502;SHT30;54349;52.528;19.760;2022-12-29T00:46:59;23.20;45.97
67502;SHT30;54349;52.528;19.760;2022-12-29T00:49:33;23.23;45.93
67502;SHT30;54349;52.528;19.760;2022-12-29T00:54:36;23.28;45.89
67502;SHT30;54349;52.528;19.760;2022-12-29T00:57:08;23.30;45.86
67502;SHT30;54349;52.528;19.760;2022-12-29T00:59:40;23.32;45.81
67502;SHT30;54349;52.528;19.760;2022-12-29T01:02:14;23.35;45.80
67502;SHT30;54349;52.528;19.760;2022-12-29T01:04:45;23.38;45.71
67502;SHT30;54349;52.528;19.760;2022-12-29T01:07:16;23.39;45.70
67502;SHT30;54349;52.528;19.760;2022-12-29T01:09:45;23.42;45.70
67502;SHT30;54349;52.528;19.760;2022-12-29T01:12:33;23.45;45.75
67502;SHT30;54349;52.528;19.760;2022-12-29T01:15:11;23.45;45.79
67502;SHT30;54349;52.528;19.760;2022-12-29T01:17:42;23.47;45.72
67502;SHT30;54349;52.528;19.760;2022-12-29T01:20:12;23.48;45.68
67502;SHT30;54349;52.528;19.760;2022-12-29T01:22:42;23.49;45.62
67502;SHT30;54349;52.528;19.760;2022-12-29T01:25:12;23.51;45.60
67502;SHT30;54349;52.528;19.760;2022-12-29T01:27:41;23.52;45.57
67502;SHT30;54349;52.528;19.760;2022-12-29T01:30:10;23.54;45.53
67502;SHT30;54349;52.528;19.760;2022-12-29T01:32:39;23.56;45.50
67502;SHT30;54349;52.528;19.760;2022-12-29T01:35:07;23.57;45.48
67502;SHT30;54349;52.528;19.760;2022-12-29T01:37:36;23.58;45.43
67502;SHT30;54349;52.528;19.760;2022-12-29T01:40:05;23.58;45.41
67502;SHT30;54349;52.528;19.760;2022-12-29T01:42:34;23.59;45.39
67502;SHT30;54349;52.528;19.760;2022-12-29T01:45:08;23.61;45.32
67502;SHT30;54349;52.528;19.760;2022-12-29T01:47:45;23.62;45.37
67502;SHT30;54349;52.528;19.760;2022-12-29T01:50:26;23.63;45.31
67502;SHT30;54349;52.528;19.760;2022-12-29T01:53:09;23.64;45.28
67502;SHT30;54349;52.528;19.760;2022-12-29T01:55:48;23.65;45.20
67502;SHT30;54349;52.528;19.760;2022-12-29T01:58:23;23.67;45.19
67502;SHT30;54349;52.528;19.760;2022-12-29T02:00:59;23.68;45.14
67502;SHT30;54349;52.528;19.760;2022-12-29T02:03:28;23.69;45.10
67502;SHT30;54349;52.528;19.760;2022-12-29T02:06:04;23.71;45.11
67502;SHT30;54349;52.528;19.760;2022-12-29T02:08:46;23.70;45.01
67502;SHT30;54349;52.528;19.760;2022-12-29T02:11:16;23.70;44.81
67502;SHT30;54349;52.528;19.760;2022-12-29T02:13:45;23.67;44.65
67502;SHT30;54349;52.528;19.760;2022-12-29T02:26:15;23.49;44.38
67502;SHT30;54349;52.528;19.760;2022-12-29T02:32:17;23.40;44.36
67502;SHT30;54349;52.528;19.760;2022-12-29T02:35:14;23.36;44.35
67502;SHT30;54349;52.528;19.760;2022-12-29T02:40:43;23.28;44.32
67502;SHT30;54349;52.528;19.760;2022-12-29T02:46:19;23.22;44.31
67502;SHT30;54349;52.528;19.760;2022-12-29T02:49:13;23.18;44.30
67502;SHT30;54349;52.528;19.760;2022-12-29T02:51:52;23.15;44.30
67502;SHT30;54349;52.528;19.760;2022-12-29T02:54:50;23.11;44.30
67502;SHT30;54349;52.528;19.760;2022-12-29T03:13:45;22.91;44.31
67502;SHT30;54349;52.528;19.760;2022-12-29T03:16:45;22.88;44.32
67502;SHT30;54349;52.528;19.760;2022-12-29T03:19:23;22.86;44.33
67502;SHT30;54349;52.528;19.760;2022-12-29T03:22:02;22.84;44.36
67502;SHT30;54349;52.528;19.760;2022-12-29T03:25:09;22.81;44.35
67502;SHT30;54349;52.528;19.760;2022-12-29T03:28:08;22.77;44.32
67502;SHT30;54349;52.528;19.760;2022-12-29T03:30:44;22.75;44.31
67502;SHT30;54349;52.528;19.760;2022-12-29T03:33:17;22.73;44.37
67502;SHT30;54349;52.528;19.760;2022-12-29T03:35:52;22.71;44.39
67502;SHT30;54349;52.528;19.760;2022-12-29T03:38:33;22.69;44.37
67502;SHT30;54349;52.528;19.760;2022-12-29T03:41:15;22.67;44.38
67502;SHT30;54349;52.528;19.760;2022-12-29T03:43:51;22.65;44.39
67502;SHT30;54349;52.528;19.760;2022-12-29T03:46:19;22.63;44.36
67502;SHT30;54349;52.528;19.760;2022-12-29T03:48:47;22.62;44.35
67502;SHT30;54349;52.528;19.760;2022-12-29T03:51:15;22.60;44.34
67502;SHT30;54349;52.528;19.760;2022-12-29T03:53:45;22.58;44.39
67502;SHT30;54349;52.528;19.760;2022-12-29T03:56:13;22.56;44.40
67502;SHT30;54349;52.528;19.760;2022-12-29T03:58:42;22.54;44.40
67502;SHT30;54349;52.528;19.760;2022-12-29T04:01:15;22.52;44.39
67502;SHT30;54349;52.528;19.760;2022-12-29T04:03:45;22.51;44.40
67502;SHT30;54349;52.528;19.760;2022-12-29T04:06:13;22.48;44.34
67502;SHT30;54349;52.528;19.760;2022-12-29T04:08:53;22.47;44.33
67502;SHT30;54349;52.528;19.760;2022-12-29T04:11:23;22.45;44.31
67502;SHT30;54349;52.528;19.760;2022-12-29T04:13:59;22.43;44.30
67502;SHT30;54349;52.528;19.760;2022-12-29T04:16:30;22.41;44.28
67502;SHT30;54349;52.528;19.760;2022-12-29T04:18:58;22.40;44.24
67502;SHT30;54349;52.528;19.760;2022-12-29T04:21:29;22.37;44.21
67502;SHT30;54349;52.528;19.760;2022-12-29T04:23:58;22.36;44.20
67502;SHT30;54349;52.528;19.760;2022-12-29T04:26:27;22.35;44.19
67502;SHT30;54349;52.528;19.760;2022-12-29T04:29:25;22.33;44.19
67502;SHT30;54349;52.528;19.760;2022-12-29T04:32:14;22.31;44.18
67502;SHT30;54349;52.528;19.760;2022-12-29T04:34:49;22.30;44.03
67502;SHT30;54349;52.528;19.760;2022-12-29T04:37:18;22.30;43.87
67502;SHT30;54349;52.528;19.760;2022-12-29T04:39:46;22.33;43.80
67502;SHT30;54349;52.528;19.760;2022-12-29T04:42:15;22.39;43.73
67502;SHT30;54349;52.528;19.760;2022-12-29T04:44:45;22.46;43.58
67502;SHT30;54349;52.528;19.760;2022-12-29T04:47:37;22.53;43.41
67502;SHT30;54349;52.528;19.760;2022-12-29T04:50:25;22.57;43.31
67502;SHT30;54349;52.528;19.760;2022-12-29T04:53:13;22.64;43.31
67502;SHT30;54349;52.528;19.760;2022-12-29T04:55:44;22.73;43.20
67502;SHT30;54349;52.528;19.760;2022-12-29T04:58:17;22.78;43.11
67502;SHT30;54349;52.528;19.760;2022-12-29T05:00:50;22.83;43.15
67502;SHT30;54349;52.528;19.760;2022-12-29T05:03:22;22.86;43.03
67502;SHT30;54349;52.528;19.760;2022-12-29T05:05:54;22.89;42.95
67502;SHT30;54349;52.528;19.760;2022-12-29T05:08:24;22.93;42.92
67502;SHT30;54349;52.528;19.760;2022-12-29T05:10:57;23.00;42.76
67502;SHT30;54349;52.528;19.760;2022-12-29T05:13:26;23.05;42.71
67502;SHT30;54349;52.528;19.760;2022-12-29T05:15:55;23.08;42.59
67502;SHT30;54349;52.528;19.760;2022-12-29T05:18:24;23.09;42.54
67502;SHT30;54349;52.528;19.760;2022-12-29T05:20:55;23.11;42.44
67502;SHT30;54349;52.528;19.760;2022-12-29T05:23:29;23.11;42.48
67502;SHT30;54349;52.528;19.760;2022-12-29T05:26:04;23.15;42.47
67502;SHT30;54349;52.528;19.760;2022-12-29T05:28:44;23.20;42.41
67502;SHT30;54349;52.528;19.760;2022-12-29T05:31:17;23.22;42.40
67502;SHT30;54349;52.528;19.760;2022-12-29T05:33:46;23.23;42.40
67502;SHT30;54349;52.528;19.760;2022-12-29T05:36:15;23.23;42.38
67502;SHT30;54349;52.528;19.760;2022-12-29T05:38:49;23.24;42.31
67502;SHT30;54349;52.528;19.760;2022-12-29T05:41:18;23.24;42.33
67502;SHT30;54349;52.528;19.760;2022-12-29T05:43:46;23.25;42.31
67502;SHT30;54349;52.528;19.760;2022-12-29T05:46:28;23.28;42.28
67502;SHT30;54349;52.528;19.760;2022-12-29T05:49:19;23.28;42.22
67502;SHT30;54349;52.528;19.760;2022-12-29T05:52:09;23.29;42.25
67502;SHT30;54349;52.528;19.760;2022-12-29T05:54:37;23.29;42.30
67502;SHT30;54349;52.528;19.760;2022-12-29T05:57:11;23.28;42.30
67502;SHT30;54349;52.528;19.760;2022-12-29T05:59:42;23.28;42.29
67502;SHT30;54349;52.528;19.760;2022-12-29T06:02:10;23.27;42.32
67502;SHT30;54349;52.528;19.760;2022-12-29T06:04:39;23.29;42.32
67502;SHT30;54349;52.528;19.760;2022-12-29T06:07:08;23.29;42.28
67502;SHT30;54349;52.528;19.760;2022-12-29T06:09:42;23.29;42.25
67502;SHT30;54349;52.528;19.760;2022-12-29T06:12:11;23.27;42.26
67502;SHT30;54349;52.528;19.760;2022-12-29T06:14:42;23.26;42.27
67502;SHT30;54349;52.528;19.760;2022-12-29T06:17:11;23.24;42.23
67502;SHT30;54349;52.528;19.760;2022-12-29T06:19:40;23.25;42.25
67502;SHT30;54349;52.528;19.760;2022-12-29T06:22:08;23.25;42.31
67502;SHT30;54349;52.528;19.760;2022-12-29T06:24:43;23.25;42.34
67502;SHT30;54349;52.528;19.760;2022-12-29T06:27:13;23.25;42.35
67502;SHT30;54349;52.528;19.760;2022-12-29T06:29:41;23.24;42.42
67502;SHT30;54349;52.528;19.760;2022-12-29T06:32:10;23.23;42.45
67502;SHT30;54349;52.528;19.760;2022-12-29T06:34:43;23.22;42.65
67502;SHT30;54349;52.528;19.760;2022-12-29T06:37:13;23.21;42.90
67502;SHT30;54349;52.528;19.760;2022-12-29T06:39:42;23.21;42.97
67502;SHT30;54349;52.528;19.760;2022-12-29T06:42:12;23.22;42.89
67502;SHT30;54349;52.528;19.760;2022-12-29T06:44:40;23.23;42.80
67502;SHT30;54349;52.528;19.760;2022-12-29T06:47:10;23.23;42.69
67502;SHT30;54349;52.528;19.760;2022-12-29T06:49:39;23.23;42.61
67502;SHT30;54349;52.528;19.760;2022-12-29T06:52:07;23.23;42.60
67502;SHT30;54349;52.528;19.760;2022-12-29T06:54:40;23.23;42.51
67502;SHT30;54349;52.528;19.760;2022-12-29T06:57:08;23.23;42.42
67502;SHT30;54349;52.528;19.760;2022-12-29T06:59:36;23.25;42.34
67502;SHT30;54349;52.528;19.760;2022-12-29T07:02:05;23.25;42.30
67502;SHT30;54349;52.528;19.760;2022-12-29T07:04:34;23.25;42.23
67502;SHT30;54349;52.528;19.760;2022-12-29T07:07:02;23.25;42.14
67502;SHT30;54349;52.528;19.760;2022-12-29T07:09:31;23.24;42.12
67502;SHT30;54349;52.528;19.760;2022-12-29T07:12:00;23.24;42.07
67502;SHT30;54349;52.528;19.760;2022-12-29T07:14:29;23.23;42.02
67502;SHT30;54349;52.528;19.760;2022-12-29T07:16:57;23.24;42.00
67502;SHT30;54349;52.528;19.760;2022-12-29T07:19:26;23.25;41.91
67502;SHT30;54349;52.528;19.760;2022-12-29T07:21:54;23.25;41.89
67502;SHT30;54349;52.528;19.760;2022-12-29T07:24:23;23.25;41.81
67502;SHT30;54349;52.528;19.760;2022-12-29T07:26:53;23.26;41.74
67502;SHT30;54349;52.528;19.760;2022-12-29T07:29:21;23.25;41.70
67502;SHT30;54349;52.528;19.760;2022-12-29T07:31:50;23.26;41.67
67502;SHT30;54349;52.528;19.760;2022-12-29T07:34:19;23.25;41.60
67502;SHT30;54349;52.528;19.760;2022-12-29T07:36:48;23.26;41.59
67502;SHT30;54349;52.528;19.760;2022-12-29T07:39:18;23.27;41.51
67502;SHT30;54349;52.528;19.760;2022-12-29T07:41:46;23.28;41.51
67502;SHT30;54349;52.528;19.760;2022-12-29T07:44:19;23.27;41.48
67502;SHT30;54349;52.528;19.760;2022-12-29T07:47:07;23.26;41.42
67502;SHT30;54349;52.528;19.760;2022-12-29T07:49:38;23.26;41.39
67502;SHT30;54349;52.528;19.760;2022-12-29T07:52:07;23.26;41.32
67502;SHT30;54349;52.528;19.760;2022-12-29T07:54:36;23.27;41.31
67502;SHT30;54349;52.528;19.760;2022-12-29T07:57:05;23.27;41.30
67502;SHT30;54349;52.528;19.760;2022-12-29T07:59:34;23.27;41.29
67502;SHT30;54349;52.528;19.760;2022-12-29T08:02:04;23.26;41.24
67502;SHT30;54349;52.528;19.760;2022-12-29T08:04:32;23.27;41.18
67502;SHT30;54349;52.528;19.760;2022-12-29T08:07:01;23.26;41.15
67502;SHT30;54349;52.528;19.760;2022-12-29T08:09:29;23.26;41.16
67502;SHT30;54349;52.528;19.760;2022-12-29T08:11:58;23.26;41.15
67502;SHT30;54349;52.528;19.760;2022-12-29T08:14:27;23.26;41.10
67502;SHT30;54349;52.528;19.760;2022-12-29T08:16:55;23.27;41.09
67502;SHT30;54349;52.528;19.760;2022-12-29T08:19:24;23.27;41.09
67502;SHT30;54349;52.528;19.760;2022-12-29T08:21:53;23.28;41.04
67502;SHT30;54349;52.528;19.760;2022-12-29T08:24:21;23.26;40.99
67502;SHT30;54349;52.528;19.760;2022-12-29T08:26:50;23.26;41.00
67502;SHT30;54349;52.528;19.760;2022-12-29T08:29:19;23.25;40.99
67502;SHT30;54349;52.528;19.760;2022-12-29T08:31:49;23.27;41.01
67502;SHT30;54349;52.528;19.760;2022-12-29T08:34:18;23.27;41.00
67502;SHT30;54349;52.528;19.760;2022-12-29T08:36:46;23.27;40.99
67502;SHT30;54349;52.528;19.760;2022-12-29T08:39:14;23.26;40.99
67502;SHT30;54349;52.528;19.760;2022-12-29T08:41:43;23.28;40.95
67502;SHT30;54349;52.528;19.760;2022-12-29T08:44:12;23.28;40.88
67502;SHT30;54349;52.528;19.760;2022-12-29T08:46:41;23.27;40.82
67502;SHT30;54349;52.528;19.760;2022-12-29T08:49:10;23.27;40.79
67502;SHT30;54349;52.528;19.760;2022-12-29T08:51:39;23.28;40.72
67502;SHT30;54349;52.528;19.760;2022-12-29T08:54:08;23.27;40.76
67502;SHT30;54349;52.528;19.760;2022-12-29T08:56:36;23.29;40.76
67502;SHT30;54349;52.528;19.760;2022-12-29T08:59:05;23.28;40.76
67502;SHT30;54349;52.528;19.760;2022-12-29T09:01:33;23.28;40.74
67502;SHT30;54349;52.528;19.760;2022-12-29T09:04:04;23.28;40.71
67502;SHT30;54349;52.528;19.760;2022-12-29T09:06:43;23.28;40.69
67502;SHT30;54349;52.528;19.760;2022-12-29T09:09:13;23.30;40.70
67502;SHT30;54349;52.528;19.760;2022-12-29T09:11:42;23.29;40.70
67502;SHT30;54349;52.528;19.760;2022-12-29T09:14:11;23.30;40.61
67502;SHT30;54349;52.528;19.760;2022-12-29T09:16:41;23.31;40.64
67502;SHT30;54349;52.528;19.760;2022-12-29T09:19:28;23.31;40.58
67502;SHT30;54349;52.528;19.760;2022-12-29T09:21:58;23.31;40.59
67502;SHT30;54349;52.528;19.760;2022-12-29T09:24:27;23.31;40.59
67502;SHT30;54349;52.528;19.760;2022-12-29T09:26:56;23.31;40.58
67502;SHT30;54349;52.528;19.760;2022-12-29T09:29:24;23.32;40.56
67502;SHT30;54349;52.528;19.760;2022-12-29T09:31:52;23.32;40.52
67502;SHT30;54349;52.528;19.760;2022-12-29T09:34:21;23.32;40.51
67502;SHT30;54349;52.528;19.760;2022-12-29T09:36:51;23.31;40.47
67502;SHT30;54349;52.528;19.760;2022-12-29T09:39:19;23.31;40.44
67502;SHT30;54349;52.528;19.760;2022-12-29T09:48:00;23.31;40.40
67502;SHT30;54349;52.528;19.760;2022-12-29T09:50:36;23.31;40.40
67502;SHT30;54349;52.528;19.760;2022-12-29T09:53:14;23.32;40.35
67502;SHT30;54349;52.528;19.760;2022-12-29T09:56:01;23.31;40.30
67502;SHT30;54349;52.528;19.760;2022-12-29T10:01:36;23.31;40.30
67502;SHT30;54349;52.528;19.760;2022-12-29T10:04:14;23.31;40.33
67502;SHT30;54349;52.528;19.760;2022-12-29T10:07:03;23.32;40.44
67502;SHT30;54349;52.528;19.760;2022-12-29T10:16:09;23.33;40.64
67502;SHT30;54349;52.528;19.760;2022-12-29T10:24:16;23.32;40.59
67502;SHT30;54349;52.528;19.760;2022-12-29T10:26:50;23.32;40.60
67502;SHT30;54349;52.528;19.760;2022-12-29T10:29:22;23.33;40.60
67502;SHT30;54349;52.528;19.760;2022-12-29T10:32:05;23.33;40.67
67502;SHT30;54349;52.528;19.760;2022-12-29T10:35:03;23.32;40.60
67502;SHT30;54349;52.528;19.760;2022-12-29T10:43:44;23.31;40.57
67502;SHT30;54349;52.528;19.760;2022-12-29T10:46:29;23.31;40.65
67502;SHT30;54349;52.528;19.760;2022-12-29T10:49:06;23.31;40.74
67502;SHT30;54349;52.528;19.760;2022-12-29T10:51:58;23.31;40.79
67502;SHT30;54349;52.528;19.760;2022-12-29T10:59:56;23.29;40.89
67502;SHT30;54349;52.528;19.760;2022-12-29T11:02:35;23.29;40.91
67502;SHT30;54349;52.528;19.760;2022-12-29T11:05:33;23.29;40.98
67502;SHT30;54349;52.528;19.760;2022-12-29T11:08:26;23.29;41.00
67502;SHT30;54349;52.528;19.760;2022-12-29T11:11:03;23.27;40.99
67502;SHT30;54349;52.528;19.760;2022-12-29T11:13:36;23.28;41.01
67502;SHT30;54349;52.528;19.760;2022-12-29T11:16:28;23.27;41.01
67502;SHT30;54349;52.528;19.760;2022-12-29T11:19:02;23.26;41.00
67502;SHT30;54349;52.528;19.760;2022-12-29T11:21:35;23.25;41.03
67502;SHT30;54349;52.528;19.760;2022-12-29T11:24:21;23.25;41.05
67502;SHT30;54349;52.528;19.760;2022-12-29T11:27:18;23.25;41.01
67502;SHT30;54349;52.528;19.760;2022-12-29T11:29:51;23.25;41.06
67502;SHT30;54349;52.528;19.760;2022-12-29T11:32:23;23.25;41.08
67502;SHT30;54349;52.528;19.760;2022-12-29T11:34:56;23.24;41.08
67502;SHT30;54349;52.528;19.760;2022-12-29T11:37:28;23.24;41.10
67502;SHT30;54349;52.528;19.760;2022-12-29T11:40:05;23.23;41.04
67502;SHT30;54349;52.528;19.760;2022-12-29T11:42:50;23.24;40.92
67502;SHT30;54349;52.528;19.760;2022-12-29T11:45:27;23.23;40.85
67502;SHT30;54349;52.528;19.760;2022-12-29T11:48:09;23.22;40.80
67502;SHT30;54349;52.528;19.760;2022-12-29T11:50:56;23.22;40.71
67502;SHT30;54349;52.528;19.760;2022-12-29T11:53:32;23.21;40.71
67502;SHT30;54349;52.528;19.760;2022-12-29T11:56:16;23.22;40.71
67502;SHT30;54349;52.528;19.760;2022-12-29T11:58:50;23.22;40.69
67502;SHT30;54349;52.528;19.760;2022-12-29T12:01:34;23.22;40.61
67502;SHT30;54349;52.528;19.760;2022-12-29T12:04:11;23.22;40.60
67502;SHT30;54349;52.528;19.760;2022-12-29T12:09:51;23.23;40.51
67502;SHT30;54349;52.528;19.760;2022-12-29T12:12:40;23.22;40.48
67502;SHT30;54349;52.528;19.760;2022-12-29T12:15:42;23.23;40.44
67502;SHT30;54349;52.528;19.760;2022-12-29T12:38:50;23.21;40.36
67502;SHT30;54349;52.528;19.760;2022-12-29T12:47:58;23.23;40.41
67502;SHT30;54349;52.528;19.760;2022-12-29T13:02:00;23.25;40.23
67502;SHT30;54349;52.528;19.760;2022-12-29T13:05:04;23.25;40.20
67502;SHT30;54349;52.528;19.760;2022-12-29T13:08:20;23.24;40.20
67502;SHT30;54349;52.528;19.760;2022-12-29T13:14:12;23.24;40.10
67502;SHT30;54349;52.528;19.760;2022-12-29T13:17:10;23.25;40.08
67502;SHT30;54349;52.528;19.760;2022-12-29T13:23:16;23.25;40.08
67502;SHT30;54349;52.528;19.760;2022-12-29T13:26:13;23.25;40.01
67502;SHT30;54349;52.528;19.760;2022-12-29T13:32:50;23.25;39.92
67502;SHT30;54349;52.528;19.760;2022-12-29T13:38:36;23.25;39.91
67502;SHT30;54349;52.528;19.760;2022-12-29T13:41:18;23.25;39.94
67502;SHT30;54349;52.528;19.760;2022-12-29T13:44:14;23.25;39.91
67502;SHT30;54349;52.528;19.760;2022-12-29T13:49:56;23.25;39.88
67502;SHT30;54349;52.528;19.760;2022-12-29T13:55:21;23.23;39.80
67502;SHT30;54349;52.528;19.760;2022-12-29T14:00:53;23.21;39.76
67502;SHT30;54349;52.528;19.760;2022-12-29T14:03:49;23.19;39.81
67502;SHT30;54349;52.528;19.760;2022-12-29T14:06:20;23.15;39.81
67502;SHT30;54349;52.528;19.760;2022-12-29T14:09:01;23.13;39.88
67502;SHT30;54349;52.528;19.760;2022-12-29T14:11:37;23.11;39.91
67502;SHT30;54349;52.528;19.760;2022-12-29T14:14:12;23.09;39.93
67502;SHT30;54349;52.528;19.760;2022-12-29T14:17:08;23.08;39.94
67502;SHT30;54349;52.528;19.760;2022-12-29T14:19:42;23.09;39.96
67502;SHT30;54349;52.528;19.760;2022-12-29T14:22:13;23.09;39.95
67502;SHT30;54349;52.528;19.760;2022-12-29T14:24:59;23.10;39.91
67502;SHT30;54349;52.528;19.760;2022-12-29T14:29:56;23.11;39.90
67502;SHT30;54349;52.528;19.760;2022-12-29T14:34:54;23.14;39.82
67502;SHT30;54349;52.528;19.760;2022-12-29T14:37:26;23.17;39.80
67502;SHT30;54349;52.528;19.760;2022-12-29T14:42:54;23.18;39.81
67502;SHT30;54349;52.528;19.760;2022-12-29T14:45:28;23.18;39.85
67502;SHT30;54349;52.528;19.760;2022-12-29T14:48:00;23.20;39.81
67502;SHT30;54349;52.528;19.760;2022-12-29T14:50:42;23.21;39.79
67502;SHT30;54349;52.528;19.760;2022-12-29T14:56:12;23.23;39.69
67502;SHT30;54349;52.528;19.760;2022-12-29T14:58:48;23.23;39.65
67502;SHT30;54349;52.528;19.760;2022-12-29T15:01:19;23.24;39.61
67502;SHT30;54349;52.528;19.760;2022-12-29T15:04:45;23.24;39.56
67502;SHT30;54349;52.528;19.760;2022-12-29T15:07:08;23.25;39.59
67502;SHT30;54349;52.528;19.760;2022-12-29T15:09:42;23.25;39.59
67502;SHT30;54349;52.528;19.760;2022-12-29T15:12:43;23.26;39.60
67502;SHT30;54349;52.528;19.760;2022-12-29T15:15:21;23.26;39.59
67502;SHT30;54349;52.528;19.760;2022-12-29T15:17:54;23.26;39.58
67502;SHT30;54349;52.528;19.760;2022-12-29T15:20:24;23.25;39.54
67502;SHT30;54349;52.528;19.760;2022-12-29T15:23:08;23.25;39.54
67502;SHT30;54349;52.528;19.760;2022-12-29T15:25:59;23.25;39.59
67502;SHT30;54349;52.528;19.760;2022-12-29T15:28:44;23.25;39.55
67502;SHT30;54349;52.528;19.760;2022-12-29T15:34:09;23.25;39.68
67502;SHT30;54349;52.528;19.760;2022-12-29T15:36:40;23.25;40.11
67502;SHT30;54349;52.528;19.760;2022-12-29T15:45:14;23.23;40.35
67502;SHT30;54349;52.528;19.760;2022-12-29T15:47:44;23.23;40.32
67502;SHT30;54349;52.528;19.760;2022-12-29T15:50:22;23.23;40.28
67502;SHT30;54349;52.528;19.760;2022-12-29T15:52:58;23.23;40.20
67502;SHT30;54349;52.528;19.760;2022-12-29T15:55:35;23.23;40.14
67502;SHT30;54349;52.528;19.760;2022-12-29T15:58:24;23.22;40.11
67502;SHT30;54349;52.528;19.760;2022-12-29T16:00:57;23.21;40.08
67502;SHT30;54349;52.528;19.760;2022-12-29T16:03:33;23.20;40.04
67502;SHT30;54349;52.528;19.760;2022-12-29T16:09:15;23.20;39.97
67502;SHT30;54349;52.528;19.760;2022-12-29T16:11:47;23.18;40.00
67502;SHT30;54349;52.528;19.760;2022-12-29T16:14:47;23.20;39.98
67502;SHT30;54349;52.528;19.760;2022-12-29T16:17:24;23.18;39.91
67502;SHT30;54349;52.528;19.760;2022-12-29T16:20:00;23.17;39.90
67502;SHT30;54349;52.528;19.760;2022-12-29T16:22:48;23.17;39.91
67502;SHT30;54349;52.528;19.760;2022-12-29T16:25:30;23.16;39.90
67502;SHT30;54349;52.528;19.760;2022-12-29T16:28:13;23.16;39.91
67502;SHT30;54349;52.528;19.760;2022-12-29T16:31:04;23.17;39.95
67502;SHT30;54349;52.528;19.760;2022-12-29T16:33:48;23.17;39.91
67502;SHT30;54349;52.528;19.760;2022-12-29T16:36:31;23.16;39.85
67502;SHT30;54349;52.528;19.760;2022-12-29T16:39:16;23.16;39.87
67502;SHT30;54349;52.528;19.760;2022-12-29T16:41:53;23.15;39.84
67502;SHT30;54349;52.528;19.760;2022-12-29T16:44:27;23.15;39.82
67502;SHT30;54349;52.528;19.760;2022-12-29T16:49:41;23.16;39.85
67502;SHT30;54349;52.528;19.760;2022-12-29T16:52:20;23.15;39.81
67502;SHT30;54349;52.528;19.760;2022-12-29T16:55:01;23.16;39.80
67502;SHT30;54349;52.528;19.760;2022-12-29T16:57:31;23.14;39.91
67502;SHT30;54349;52.528;19.760;2022-12-29T17:00:06;23.14;40.59
67502;SHT30;54349;52.528;19.760;2022-12-29T17:02:51;23.13;41.42
67502;SHT30;54349;52.528;19.760;2022-12-29T17:05:27;23.13;42.14
67502;SHT30;54349;52.528;19.760;2022-12-29T17:07:56;23.15;42.42
67502;SHT30;54349;52.528;19.760;2022-12-29T17:10:30;23.17;42.28
67502;SHT30;54349;52.528;19.760;2022-12-29T17:13:21;23.19;42.12
67502;SHT30;54349;52.528;19.760;2022-12-29T17:15:50;23.20;41.95
67502;SHT30;54349;52.528;19.760;2022-12-29T17:18:20;23.22;41.80
67502;SHT30;54349;52.528;19.760;2022-12-29T17:20:50;23.23;41.71
67502;SHT30;54349;52.528;19.760;2022-12-29T17:23:19;23.25;41.58
67502;SHT30;54349;52.528;19.760;2022-12-29T17:25:54;23.27;41.48
67502;SHT30;54349;52.528;19.760;2022-12-29T17:28:24;23.29;41.41
67502;SHT30;54349;52.528;19.760;2022-12-29T17:31:00;23.30;41.30
67502;SHT30;54349;52.528;19.760;2022-12-29T17:33:34;23.32;41.20
67502;SHT30;54349;52.528;19.760;2022-12-29T17:36:10;23.34;41.11
67502;SHT30;54349;52.528;19.760;2022-12-29T17:38:39;23.34;41.07
67502;SHT30;54349;52.528;19.760;2022-12-29T17:41:11;23.35;41.04
67502;SHT30;54349;52.528;19.760;2022-12-29T17:43:42;23.35;40.97
67502;SHT30;54349;52.528;19.760;2022-12-29T17:46:11;23.33;40.97
67502;SHT30;54349;52.528;19.760;2022-12-29T17:48:40;23.34;40.92
67502;SHT30;54349;52.528;19.760;2022-12-29T17:51:12;23.35;40.89
67502;SHT30;54349;52.528;19.760;2022-12-29T17:53:41;23.34;40.87
67502;SHT30;54349;52.528;19.760;2022-12-29T17:56:09;23.33;40.88
67502;SHT30;54349;52.528;19.760;2022-12-29T17:58:38;23.33;40.80
67502;SHT30;54349;52.528;19.760;2022-12-29T18:01:08;23.32;40.77
67502;SHT30;54349;52.528;19.760;2022-12-29T18:03:39;23.32;40.76
67502;SHT30;54349;52.528;19.760;2022-12-29T18:06:08;23.31;40.76
67502;SHT30;54349;52.528;19.760;2022-12-29T18:08:39;23.31;40.77
67502;SHT30;54349;52.528;19.760;2022-12-29T18:11:23;23.30;40.72
67502;SHT30;54349;52.528;19.760;2022-12-29T18:13:54;23.28;40.71
67502;SHT30;54349;52.528;19.760;2022-12-29T18:16:23;23.27;40.65
67502;SHT30;54349;52.528;19.760;2022-12-29T18:18:52;23.26;40.67
67502;SHT30;54349;52.528;19.760;2022-12-29T18:21:21;23.25;40.67
67502;SHT30;54349;52.528;19.760;2022-12-29T18:23:52;23.24;40.66
67502;SHT30;54349;52.528;19.760;2022-12-29T18:26:22;23.22;40.68
67502;SHT30;54349;52.528;19.760;2022-12-29T18:28:56;23.22;40.66
67502;SHT30;54349;52.528;19.760;2022-12-29T18:31:30;23.20;40.65
67502;SHT30;54349;52.528;19.760;2022-12-29T18:34:05;23.19;40.63
67502;SHT30;54349;52.528;19.760;2022-12-29T18:36:42;23.18;40.60
67502;SHT30;54349;52.528;19.760;2022-12-29T18:39:11;23.16;40.62
67502;SHT30;54349;52.528;19.760;2022-12-29T18:41:39;23.16;40.66
67502;SHT30;54349;52.528;19.760;2022-12-29T18:44:11;23.14;40.64
67502;SHT30;54349;52.528;19.760;2022-12-29T18:46:40;23.14;40.62